Home   Weather   Germany   Rathenow   Past weeks
Flag for Germany

Past Weather in Rathenow, Brandenburg, Germany — Yesterday and Last 2 Weeks

Currently: 63 °F. Clear. (Weather station: Berlin-Schoenefeld, Germany). See more current weather

Past Weather in Rathenow — Graph

°F

Rathenow Temperature Yesterday

Maximum temperature yesterday: 72 °F (at 1:20 pm)
Minimum temperature yesterday: 59 °F (at 11:20 pm)
Average temperature yesterday: 66 °F

High & Low Weather Summary for the Past Weeks

 TemperatureHumidityPressure
High84 °F (Jun 6, 4:20 pm)88% (Jun 2, 6:20 am)30.33 "Hg (Jun 2, 6:20 am)
Low43 °F (May 31, 4:20 am)21% (May 31, 3:50 pm)29.89 "Hg (Jun 12, 1:50 pm)
Average67 °F53%30.12 "Hg
* Reported May 29 9:20 pm — Jun 13 9:20 pm, Rathenow. Weather by CustomWeather, © 2021

Note: Actual official high and low records may vary slightly from our data, if they occured in-between our weather recording intervals... More about our weather records

Rathenow Weather History for the Previous 24 Hours

Scroll right to see more
 ConditionsComfort  
Time TempWeatherWind HumidityBarometerVisibility
9:20 pm
Sun, Jun 13
64 °FSunny.7 mph49%30.24 "Hg10 mi
8:50 pm66 °FSunny.9 mph46%30.24 "Hg10 mi
8:20 pm66 °FSunny.10 mph46%30.24 "Hg10 mi
7:50 pm68 °FSunny.10 mph40%30.24 "Hg10 mi
7:20 pm68 °FPassing clouds.12 mph40%30.24 "HgN/A
6:50 pm68 °FPassing clouds.12 mph40%30.24 "HgN/A
6:20 pm68 °FSunny.10 mph40%30.24 "Hg10 mi
5:50 pm68 °FPassing clouds.12 mph40%30.24 "HgN/A
5:20 pm66 °FPassing clouds.15 mph40%30.24 "HgN/A
4:50 pm68 °FPassing clouds.13 mph40%30.24 "HgN/A
4:20 pm66 °FPassing clouds.13 mph43%30.24 "HgN/A
3:50 pm66 °FPassing clouds.13 mph43%30.24 "HgN/A
3:20 pm64 °FPassing clouds.13 mph46%30.27 "HgN/A
2:50 pm64 °FPassing clouds.14 mph49%30.27 "HgN/A
2:20 pm64 °FPassing clouds.15 mph49%30.27 "HgN/A
1:50 pm61 °FPassing clouds.15 mph55%30.27 "HgN/A
1:20 pm61 °FScattered clouds.15 mph55%30.24 "HgN/A
12:50 pm61 °FScattered clouds.12 mph55%30.24 "HgN/A
12:20 pm59 °FPassing clouds.15 mph63%30.24 "HgN/A
11:50 am57 °FLight rain. Partly sunny.17 mph67%30.24 "HgN/A
11:20 am59 °FPartly sunny.17 mph59%30.24 "HgN/A
10:50 am59 °FScattered clouds.18 mph59%30.24 "HgN/A
10:20 am59 °FPassing clouds.18 mph59%30.21 "HgN/A
9:50 am59 °FPassing clouds.15 mph59%30.21 "HgN/A
9:20 am57 °FPartly sunny.12 mph67%30.21 "HgN/A
8:50 am55 °FPartly sunny.14 mph72%30.21 "HgN/A
8:20 am55 °FPartly sunny.13 mph67%30.21 "HgN/A
7:50 am54 °FPartly sunny.13 mph72%30.18 "HgN/A
7:20 am54 °FPartly sunny.14 mph72%30.18 "HgN/A
6:50 am54 °FPassing clouds.14 mph72%30.18 "HgN/A
6:20 am54 °FPassing clouds.14 mph72%30.18 "HgN/A
5:50 am54 °FPassing clouds.14 mph72%30.15 "HgN/A
5:20 am54 °FPassing clouds.16 mph67%30.15 "HgN/A
4:50 am54 °FSunny.13 mph67%30.12 "Hg10 mi
4:20 am54 °FClear.14 mph67%30.12 "Hg10 mi
3:50 am54 °FClear.15 mph72%30.12 "Hg10 mi
3:20 am55 °FClear.13 mph63%30.12 "Hg10 mi
2:50 am55 °FClear.15 mph63%30.09 "Hg10 mi
2:20 am55 °FClear.15 mph67%30.09 "Hg10 mi
1:50 am57 °FClear.15 mph67%30.09 "Hg10 mi
1:20 am57 °FClear.16 mph72%30.09 "Hg10 mi
12:50 am57 °FPassing clouds.15 mph67%30.07 "HgN/A
12:20 am59 °FPassing clouds.15 mph63%30.07 "HgN/A
11:50 pm
Sat, Jun 12
59 °FPassing clouds.12 mph59%30.07 "HgN/A
11:20 pm59 °FClear.12 mph59%30.07 "Hg10 mi
10:50 pm61 °FClear.12 mph52%30.07 "Hg10 mi
10:20 pm61 °FPassing clouds.14 mph52%30.04 "HgN/A
Weather by CustomWeather, © 2021

See weather overview